createdAt,value
2018-08-06T00:00:22.568Z,21.20
2018-08-06T00:02:51.295Z,21.10
2018-08-06T00:05:20.035Z,21.10
2018-08-06T00:07:48.724Z,21.00
2018-08-06T00:10:20.700Z,21.00
2018-08-06T00:12:49.471Z,20.90
2018-08-06T00:15:18.164Z,21.00
2018-08-06T00:17:46.857Z,20.90
2018-08-06T00:20:16.022Z,20.90
2018-08-06T00:22:45.632Z,20.90
2018-08-06T00:27:44.945Z,20.90
2018-08-06T00:30:17.541Z,20.90
2018-08-06T00:32:47.445Z,20.80
2018-08-06T00:35:16.638Z,20.80
2018-08-06T00:40:17.077Z,20.80
2018-08-06T00:45:16.761Z,20.70
2018-08-06T00:47:45.896Z,20.70
2018-08-06T00:52:43.126Z,20.60
2018-08-06T00:55:14.104Z,20.60
2018-08-06T00:57:43.028Z,20.50
2018-08-06T01:00:14.549Z,20.50
2018-08-06T01:02:43.287Z,20.50
2018-08-06T01:05:13.136Z,20.50
2018-08-06T01:07:42.548Z,20.50
2018-08-06T01:10:13.018Z,20.50
2018-08-06T01:12:41.878Z,20.50
2018-08-06T01:15:13.591Z,20.50
2018-08-06T01:17:42.367Z,20.40
2018-08-06T01:20:12.433Z,20.40
2018-08-06T01:22:41.826Z,20.40
2018-08-06T01:25:10.740Z,20.40
2018-08-06T01:30:09.696Z,20.40
2018-08-06T01:32:38.565Z,20.40
2018-08-06T01:40:07.071Z,20.30
2018-08-06T01:42:35.803Z,20.30
2018-08-06T01:45:04.901Z,20.30
2018-08-06T01:47:33.643Z,20.30
2018-08-06T01:50:02.396Z,20.20
2018-08-06T01:54:59.492Z,20.20
2018-08-06T01:57:28.275Z,20.20
2018-08-06T02:02:25.471Z,20.10
2018-08-06T02:04:54.159Z,20.00
2018-08-06T02:07:22.894Z,20.00
2018-08-06T02:09:51.885Z,20.00
2018-08-06T02:12:20.625Z,19.90
2018-08-06T02:14:49.319Z,19.90
2018-08-06T02:17:17.998Z,19.90
2018-08-06T02:19:46.735Z,19.90
2018-08-06T02:22:15.449Z,19.90
2018-08-06T02:24:44.205Z,19.90
2018-08-06T02:27:12.917Z,19.80
2018-08-06T02:29:41.686Z,19.80
2018-08-06T02:32:10.469Z,19.80
2018-08-06T02:34:39.159Z,19.70
2018-08-06T02:37:07.906Z,19.70
2018-08-06T02:39:36.581Z,19.70
2018-08-06T02:42:05.290Z,19.70
2018-08-06T02:44:33.960Z,19.70
2018-08-06T02:47:02.700Z,19.60
2018-08-06T02:51:59.972Z,19.60
2018-08-06T02:54:28.701Z,19.60
2018-08-06T02:56:57.472Z,19.60
2018-08-06T02:59:26.163Z,19.60
2018-08-06T03:06:51.709Z,19.50
2018-08-06T03:09:20.463Z,19.50
2018-08-06T03:14:17.666Z,19.50
2018-08-06T03:16:46.387Z,19.40
2018-08-06T03:19:15.079Z,19.40
2018-08-06T03:21:43.828Z,19.40
2018-08-06T03:24:12.543Z,19.40
2018-08-06T03:26:41.248Z,19.40
2018-08-06T03:29:09.985Z,19.40
2018-08-06T03:31:38.737Z,19.30
2018-08-06T03:34:07.426Z,19.30
2018-08-06T03:36:36.125Z,19.30
2018-08-06T03:39:07.787Z,19.30
2018-08-06T03:44:05.449Z,19.30
2018-08-06T03:46:34.294Z,19.20
2018-08-06T03:49:03.049Z,19.20
2018-08-06T03:51:32.718Z,19.30
2018-08-06T03:54:01.482Z,19.30
2018-08-06T03:56:30.215Z,19.20
2018-08-06T04:01:27.408Z,19.20
2018-08-06T04:03:56.125Z,19.20
2018-08-06T04:06:24.859Z,19.20
2018-08-06T04:08:53.621Z,19.20
2018-08-06T04:11:22.334Z,19.20
2018-08-06T04:16:19.517Z,19.20
2018-08-06T04:18:49.110Z,19.20
2018-08-06T04:23:46.286Z,19.30
2018-08-06T04:26:18.549Z,19.30
2018-08-06T04:28:47.287Z,19.20
2018-08-06T04:31:16.043Z,19.20
2018-08-06T04:33:44.736Z,19.20
2018-08-06T04:36:13.453Z,19.30
2018-08-06T04:38:42.310Z,19.30
2018-08-06T04:41:11.104Z,19.20
2018-08-06T04:43:39.815Z,19.20
2018-08-06T04:46:08.647Z,19.20
2018-08-06T04:48:37.247Z,19.20
2018-08-06T04:51:12.817Z,19.20
2018-08-06T04:53:41.553Z,19.20
2018-08-06T04:58:38.816Z,19.20
2018-08-06T05:01:07.530Z,19.30
2018-08-06T05:03:36.268Z,19.40
2018-08-06T05:06:05.131Z,19.40
2018-08-06T05:08:33.866Z,19.40
2018-08-06T05:11:02.661Z,19.40
2018-08-06T05:18:28.370Z,19.50
2018-08-06T05:20:57.141Z,19.50
2018-08-06T05:23:45.503Z,19.50
2018-08-06T05:26:14.278Z,19.50
2018-08-06T05:28:43.014Z,19.40
2018-08-06T05:31:11.796Z,19.40
2018-08-06T05:33:40.438Z,19.40
2018-08-06T05:36:09.138Z,19.40
2018-08-06T05:38:37.833Z,19.40
2018-08-06T05:41:06.577Z,19.50
2018-08-06T05:43:35.292Z,19.50
2018-08-06T05:46:04.009Z,19.60
2018-08-06T05:53:34.117Z,21.10
2018-08-06T05:56:02.843Z,25.40
2018-08-06T05:58:31.617Z,27.10
2018-08-06T06:01:00.302Z,28.50
2018-08-06T06:03:29.090Z,29.60
2018-08-06T06:05:57.825Z,29.70
2018-08-06T06:10:54.980Z,32.30
2018-08-06T06:13:23.652Z,32.70
2018-08-06T06:15:52.398Z,32.90
2018-08-06T06:20:50.183Z,33.80
2018-08-06T06:23:19.592Z,34.30
2018-08-06T06:25:48.330Z,34.40
2018-08-06T06:33:14.694Z,36.00
2018-08-06T06:35:43.930Z,36.40
2018-08-06T06:38:12.646Z,36.60
2018-08-06T06:40:41.400Z,36.80
2018-08-06T06:50:35.455Z,37.70
2018-08-06T06:53:04.460Z,37.80
2018-08-06T06:55:33.172Z,38.00
2018-08-06T06:58:01.875Z,37.90
2018-08-06T07:02:58.982Z,37.90
2018-08-06T07:05:27.704Z,38.40
2018-08-06T07:12:53.250Z,39.50
2018-08-06T07:15:21.959Z,40.00
2018-08-06T07:17:50.711Z,40.10
2018-08-06T07:20:20.473Z,40.10
2018-08-06T07:22:49.241Z,40.00
2018-08-06T07:27:46.393Z,40.10
2018-08-06T07:30:16.150Z,40.50
2018-08-06T07:32:45.193Z,40.50
2018-08-06T07:35:14.500Z,41.00
2018-08-06T07:37:43.276Z,41.40
2018-08-06T07:40:13.725Z,41.60
2018-08-06T07:42:42.361Z,41.90
2018-08-06T07:45:18.955Z,42.20
2018-08-06T07:47:48.277Z,42.10
2018-08-06T07:50:18.402Z,42.20
2018-08-06T07:57:44.113Z,43.10
2018-08-06T08:00:16.435Z,43.10
2018-08-06T08:02:45.166Z,43.50
2018-08-06T08:05:15.223Z,43.60
2018-08-06T08:12:47.710Z,44.20
2018-08-06T08:15:17.929Z,44.20
2018-08-06T08:17:48.729Z,44.20
2018-08-06T08:20:19.045Z,44.20
2018-08-06T08:22:48.777Z,44.60
2018-08-06T08:25:21.045Z,44.50
2018-08-06T08:27:50.657Z,45.10
2018-08-06T08:30:20.794Z,45.70
2018-08-06T08:32:50.968Z,46.10
2018-08-06T08:35:20.551Z,46.20
2018-08-06T08:37:50.746Z,46.60
2018-08-06T08:40:20.998Z,46.80
2018-08-06T08:42:51.414Z,47.20
2018-08-06T08:45:21.127Z,47.10
2018-08-06T08:47:51.175Z,47.20
2018-08-06T08:50:22.048Z,47.00
2018-08-06T08:52:52.052Z,47.30
2018-08-06T08:55:21.537Z,47.50
2018-08-06T08:57:52.736Z,47.80
2018-08-06T09:00:24.117Z,48.50
2018-08-06T09:02:57.769Z,47.80
2018-08-06T09:05:27.348Z,47.70
2018-08-06T09:07:56.926Z,48.20
2018-08-06T09:10:26.061Z,48.80
2018-08-06T09:12:55.378Z,48.70
2018-08-06T09:15:27.267Z,48.70
2018-08-06T09:17:57.198Z,48.70
2018-08-06T09:22:55.963Z,48.40
2018-08-06T09:25:26.430Z,48.40
2018-08-06T09:27:56.191Z,48.50
2018-08-06T09:30:26.290Z,48.50
2018-08-06T09:32:56.852Z,48.30
2018-08-06T09:35:27.657Z,48.20
2018-08-06T09:37:56.836Z,48.40
2018-08-06T09:42:56.240Z,48.90
2018-08-06T09:45:25.947Z,48.90
2018-08-06T09:47:56.666Z,48.70
2018-08-06T09:50:26.315Z,48.90
2018-08-06T09:52:56.057Z,49.40
2018-08-06T09:55:27.693Z,49.90
2018-08-06T09:57:57.429Z,49.80
2018-08-06T10:00:32.176Z,49.50
2018-08-06T10:03:02.644Z,49.20
2018-08-06T10:05:33.105Z,49.40
2018-08-06T10:08:03.762Z,49.70
2018-08-06T10:10:34.236Z,49.70
2018-08-06T10:13:04.573Z,49.50
2018-08-06T10:18:03.433Z,49.00
2018-08-06T10:20:34.584Z,48.70
2018-08-06T10:23:04.235Z,48.30
2018-08-06T10:25:33.827Z,48.30
2018-08-06T10:28:03.239Z,48.50
2018-08-06T10:30:32.617Z,48.40
2018-08-06T10:33:03.875Z,48.30
2018-08-06T10:38:02.689Z,47.70
2018-08-06T10:40:33.153Z,46.70
2018-08-06T10:45:32.495Z,45.10
2018-08-06T10:48:01.996Z,44.60
2018-08-06T10:50:31.514Z,44.80
2018-08-06T10:55:30.441Z,45.20
2018-08-06T11:00:29.059Z,44.90
2018-08-06T11:02:58.618Z,44.90
